KPIT/PIT METAR and TAF weather

Enter ICAO airport designator
Station Type Date Time Source
KPIT METAR 2021/03/04 23:51 UTC NOAA

KPIT 042351Z 32014KT 10SM -SN OVC032 M03/M09 A3015 RMK AO2 SLP231 P0000 60000 T10281094 10022 21028 51022


Station Type Date Time Source
KPIT Decoded METAR 2021/03/04 23:51 UTC NOAA

GREATER PITTSBURGH INTERNATIONAL , PA, United States (KPIT) 40-29N 80-14W 357M
Mar 04, 2021 - 06:51 PM EST / 2021.03.04 2351 UTC
Wind: from the NW (320 degrees) at 16 MPH (14 KT):0
Visibility: 10 mile(s):0
Sky conditions: overcast
Weather: light snow
Precipitation last hour: A trace
Temperature: 27.0 F (-2.8 C)
Windchill: 14 F (-10 C):1
Dew Point: 15.1 F (-9.4 C)
Relative Humidity: 60%
Pressure (altimeter): 30.15 in. Hg (1020 hPa)
Pressure tendency: 0.06 inches (2.2 hPa) higher than three hours ago
ob: KPIT 042351Z 32014KT 10SM -SN OVC032 M03/M09 A3015 RMK AO2 SLP231 P0000 60000 T10281094 10022 21028 51022
cycle: 0

Station Type Date Time Source
KPIT TAF 2021/03/04 23:04 UTC NOAA

TAF
AMD KPIT 042302Z 0423/0524 34012KT P6SM -SN BKN035
FM050200 33010KT P6SM BKN035
FM051600 31009G18KT P6SM SKC

Example: see airport list